Relevés horaires Eggishorn (Suisse)


Relevés horaires à Eggishorn - Jeudi 05 Déc. 2019
Heure UTC1 Température [°C] Vent [km/h] Hum. [%] Pres.4 [hPa] Visi. [Km] Nébu. [octa] Préc.5 [mm] Cond.
2m. Res. Ros. Dir.2 Vit. Moy. Raf.3
23:00 -2.5 -6.1 -22.5 NNO 9.3 -- 13.0 20 700(-0.2/3h) -- -- -- --
22:00 -1.9 -4 -23.0 NO 5.6 -- 13.0 18 700(-0.3/3h) -- -- -- --
21:00 -2.0 -4.9 -22.7 NO 7.4 -- 13.0 19 700(0.0/3h) -- -- -- --
20:00 -1.4 -3.5 -22.9 ONO 5.6 -- 9.3 18 700(0.2/3h) -- -- -- --
19:00 -1.0 -1.0 -23.8 N 3.7 -- 13.0 16 700(0.4/3h) -- -- -- --
18:00 -1.3 -5.2 -20.1 N 11.1 -- 14.8 22 700(0.3/3h) -- -- -- --
17:00 -1.0 -3 -22.5 NNO 5.6 -- 11.1 18 700(0.3/3h) -- -- -- --
16:00 -0.1 -0.1 -23.1 NNE 1.9 -- 5.6 16 700(0.1/3h) -- -- -- --
15:00 -0.1 -0.1 -24.5 ENE 1.9 -- 13.0 14 700(-0.3/3h) -- -- -- --
14:00 -0.2 -2.1 -20.9 SE 5.6 -- 9.3 19 700(-0.6/3h) -- -- -- --
13:00 0.2 0.2 -24.4 ENE 3.7 -- 13.0 14 700(-0.5/3h) -- -- -- --
12:00 0.7 -2.7 -24.0 SE 11.1 -- 18.5 14 700(0.2/3h) -- -- -- --
11:00 0.2 -3.4 -18.9 SE 11.1 -- 18.5 22 700(0.6/3h) -- -- -- --
10:00 -0.8 -5 -20.2 SE 13.0 -- 16.7 21 700(1.1/3h) -- -- -- --
09:00 -1.2 -5.9 -20.1 SE 14.8 -- 18.5 22 700(0.9/3h) -- -- -- --
08:00 -1.7 -5.1 -19.2 E 9.3 -- 14.8 25 700(0.8/3h) -- -- -- --
07:00 -0.9 -0.9 -27.3 NE 3.7 -- 14.8 11 700(0.4/3h) -- -- -- --
06:00 -0.8 -4.6 -28.8 N 11.1 -- 20.4 10 700(0.1/3h) -- -- -- --
05:00 -1.4 -1.4 -24.2 ENE 3.7 -- 11.1 16 700(-0.2/3h) -- -- -- --
04:00 -1.9 -4.8 -23.6 N 7.4 -- 11.1 17 700(0.0/3h) -- -- -- --
03:00 -2.3 -5.2 -22.1 NE 7.4 -- 20.4 20 700(0.2/3h) -- -- -- --
02:00 -3.0 -7.2 -18.8 E 11.1 -- 16.7 28 700(0.5/3h) -- -- -- --
01:00 -3.0 -7.2 -18.6 E 11.1 -- 20.4 29 700(0.3/3h) -- -- -- --
00:00 -2.9 -8.7 -16.5 ESE 18.5 -- 35.2 34 700(0.3/3h) -- -- -- --

1 Coordinated Universal Time. Actuellement il est 07:00 locale et 05:00 UTC.

2 Le vent souffle depuis la direction indiquée vers la direction oposée.

3 Les rafales max. sont disponible 40 min après l'heure du relevé.

4 Pour les stations d'altitude (plus de 600m) le géopotentiel du niveau le plus proche de la pression obligatoire est indiqué.

5 Les stations disposant d'un diffuseur peuvent indiquer "trace". Cela signifie que des précipitations ont touchés le sol mais que la quantité est inférieure à 0.1 mm.

Copyright

Les données affichées sur cette page sont la propriété exclusive de Météo Suisse.

Récapitulatif de la journée
Température [°C] Vent [km/h] Ensoleillement4 [h] Precipitations totale5 [mm] Pression [Hpa]
Min1 Max.2 Moy.3 Max. Min Max.
-3.4 0.8 0 35.2 5 h 24 min 0 700.0 700.0

1 Température minimale relevée entre 18:00 UTC la veille et 18:00 UTC le jour donné.

2 Température maximale relevée entre 06:00 UTC le jour donné et 06:00 UTC le lendemain.

3 Vent moyen de la journée basé sur les relevés horaires.

4 Ensoleillement en heures relevé entre 06:00 UTC la veille et 06:00 UTC le jour donné.

5 Précipitations totales tombées entre 06:00 UTC la jour donné et 06:00 UTC le lendemain.

Graphiques horaires